Flight Track Log - Related Links

Times and Time Zones

All times are in EDT time to prevent confusion due to time zone crossing. See the AWI3778 flight status page for this flight to view local times or setup timezone preferences in your user account.

Time Position Orientation Groundspeed Altitude Reporting Facility
EDT Latitude Longitude Course Direction KTS MPH feet Rate Location/Type
Mon 02:05:00 PM 44.1733 -73.2574 196° South  Level FlightAware Approximate
Mon 02:06:00 PM 44.0758 -73.2964 196° South  Level FlightAware Approximate
Mon 02:06:13 PM 44.2944 -73.1478 197° South 231 266 8,200  Level Boston Center
Mon 02:07:00 PM 43.9783 -73.3354 196° South  Level FlightAware Approximate
Mon 02:07:13 PM 44.2256 -73.1758 196° South 254 292 9,900  Level Boston Center
Mon 02:08:00 PM 43.8807 -73.3738 195° South  Level FlightAware Approximate
Mon 02:08:13 PM 44.1525 -73.2097 198° South 271 312 12,400  Level Boston Center
Mon 02:09:00 PM 43.7827 -73.4100 195° South  Level FlightAware Approximate
Mon 02:09:13 PM 44.0753 -73.2464 199° South 288 331 14,700  Level Boston Center
Mon 02:10:00 PM 43.6846 -73.4462 195° South  Level FlightAware Approximate
Mon 02:10:13 PM 43.9894 -73.2828 197° South 308 354 16,400  Level Boston Center
Mon 02:11:13 PM 43.9017 -73.3189 197° South 329 379 18,000 1,650 Climbing Boston Center
Mon 02:12:13 PM 43.8117 -73.3608 199° South 344 396 19,700 1,500 Climbing Boston Center
Mon 02:13:13 PM 43.7156 -73.3994 196° South 350 403 21,000 1,300 Climbing Boston Center
Mon 02:14:13 PM 43.6297 -73.4325 196° South 355 409 22,300 1,350 Climbing Boston Center
Mon 02:15:13 PM 43.5336 -73.4739 197° South 360 414 23,700 1,300 Climbing Boston Center
Mon 02:16:13 PM 43.4333 -73.5150 197° South 365 420 24,900 1,150 Climbing Boston Center
Mon 02:17:13 PM 43.3369 -73.5561 197° South 365 420 26,000 550 Climbing Boston Center
Mon 02:18:13 PM 43.2386 -73.6000 198° South 365 420 26,000  Level Boston Center
Mon 02:19:13 PM 43.1403 -73.6408 197° South 365 420 26,000  Level Boston Center
Mon 02:20:13 PM 43.0292 -73.6869 197° South 370 426 26,000  Level Boston Center
Mon 02:21:13 PM 42.9328 -73.7275 197° South 370 426 26,000  Level Boston Center
Mon 02:22:13 PM 42.8344 -73.7681 197° South 365 420 26,000  Level Boston Center
Mon 02:23:13 PM 42.7400 -73.8169 201° Southwest 365 420 26,000  Level Boston Center
Mon 02:24:13 PM 42.6847 -73.9231 235° Southwest 354 407 26,000  Level Boston Center
Mon 02:25:13 PM 42.6331 -74.0375 238° Southwest 348 400 26,000  Level Boston Center
Mon 02:26:13 PM 42.5814 -74.1517 238° Southwest 355 409 26,000  Level Boston Center
Mon 02:27:13 PM 42.5275 -74.2628 237° Southwest 360 414 26,000  Level Boston Center
Mon 02:28:13 PM 42.4736 -74.3711 236° Southwest 360 414 26,000  Level Boston Center
Mon 02:29:13 PM 42.4175 -74.4792 235° Southwest 360 414 26,000  Level Boston Center
Mon 02:30:13 PM 42.3633 -74.5897 236° Southwest 360 414 26,000  Level Boston Center
Mon 02:31:13 PM 42.3069 -74.7028 236° Southwest 365 420 26,000 -500 Level Boston Center
Mon 02:32:13 PM 42.2525 -74.8131 236° Southwest 365 420 25,000 -1,536 Descending Boston Center
Mon 02:34:40 PM 42.0861 -75.0353 225° Southwest 343 395 20,700 -1,681 Descending New York Center
Mon 02:35:40 PM 42.0003 -75.1050 211° Southwest 357 411 19,200 -836 Descending New York Center
Mon 02:36:42 PM 41.9231 -75.1725 213° Southwest 358 412 19,000 -100 Descending New York Center
Mon 02:37:40 PM 41.8500 -75.2289 210° Southwest 345 397 19,000 -504 Level New York Center
Mon 02:38:41 PM 41.7728 -75.2931 212° Southwest 340 391 18,000 -1,289 Descending New York Center
Mon 02:39:41 PM 41.6889 -75.3597 211° Southwest 330 380 16,400 -1,587 Descending New York Center
Mon 02:40:42 PM 41.6158 -75.4158 210° Southwest 324 373 14,800 -1,537 Descending New York Center
Mon 02:41:42 PM 41.5492 -75.4719 212° Southwest 312 359 13,300 -1,373 Descending New York Center
Mon 02:42:40 PM 41.4847 -75.5231 211° Southwest 307 353 12,100 -661 Descending New York Center
Mon 02:43:40 PM 41.4072 -75.5839 210° Southwest 302 348 12,000 -50 Descending New York Center
Mon 02:44:40 PM 41.3361 -75.6394 210° Southwest 307 353 12,000  Level New York Center
Mon 02:45:41 PM 41.2656 -75.6869 207° Southwest 301 346 12,000 -446 Level New York Center
Mon 02:46:41 PM 41.1842 -75.6892 181° South 290 334 11,100 -893 Descending New York Center
Mon 02:47:42 PM 41.1114 -75.6894 180° South 290 334 10,200 -555 Descending New York Center
Mon 02:48:40 PM 41.0300 -75.6892 180° South 290 334 10,000 -102 Descending New York Center
Mon 02:49:40 PM 40.9425 -75.6883 180° South 290 334 10,000  Level New York Center
Mon 02:50:41 PM 40.8675 -75.6883 180° South 290 334 10,000  Level New York Center
Mon 02:51:41 PM 40.7969 -75.6858 178° South 290 334 10,000  Level New York Center
Mon 02:52:42 PM 40.7178 -75.6858 180° South 290 334 10,000  Level New York Center
Mon 02:53:42 PM 40.6342 -75.6881 181° South 290 334 10,000  Level New York Center
Mon 02:54:42 PM 40.5667 -75.6586 162° South 264 304 10,000  Level New York Center
Mon 02:55:40 PM 40.5264 -75.5764 123° Southeast 257 296 10,000 -508 Level New York Center
Mon 02:56:40 PM 40.4819 -75.4889 124° Southeast 274 315 9,000 -496 Descending New York Center
Mon 02:57:41 PM 40.4217 -75.4300 143° Southeast 280 322 9,000 -393 Level New York Center
Mon 02:58:42 PM 40.3586 -75.4422 188° South 226 260 8,200 -1,160 Descending New York Center
Mon 02:59:40 PM 40.3003 -75.4436 181° South 221 254 6,700 -1,450 Descending New York Center
Mon 03:00:42 PM 40.2533 -75.4189 158° South 208 239 5,300 -1,300 Descending New York Center
Mon 03:01:40 PM 40.1897 -75.3900 161° South 219 252 4,100 -661 Descending New York Center
Mon 03:02:40 PM 40.1408 -75.3650 159° South 212 244 4,000 -496 Descending New York Center
Mon 03:03:41 PM 40.0958 -75.3431 160° South 193 222 3,100 -738 Descending New York Center
Mon 03:04:42 PM 40.0528 -75.3239 161° South 172 198 2,500 -330 Descending New York Center
Mon 03:05:30 PM 40.0167 -75.3000 153° Southeast 158 182 2,500 -263 Level Philadelphia TRACON
Mon 03:06:36 PM 39.9833 -75.2833 159° South 126 145 2,000 -550 Descending Philadelphia TRACON
Mon 03:07:30 PM 39.9500 -75.2667 159° South 119 137 1,400 -650 Descending Philadelphia TRACON
Mon 03:08:36 PM 39.9167 -75.2500 159° South 127 146 700 -636 Descending Philadelphia TRACON
Mon 03:10:00 PM 39.8667 -75.2333 166° South  Level FlightAware Approximate

Login

Don't have an account? Register now (free) for customized features, flight alerts, and more!